createdAt,value
2023-02-27T00:03:35.918Z,0
2023-02-27T00:08:42.383Z,0
2023-02-27T00:13:48.843Z,0
2023-02-27T00:18:55.321Z,0
2023-02-27T00:24:01.811Z,0
2023-02-27T00:29:08.265Z,0
2023-02-27T00:34:15.281Z,0
2023-02-27T00:39:22.281Z,0
2023-02-27T00:44:29.273Z,0
2023-02-27T00:49:36.287Z,0
2023-02-27T00:54:43.278Z,0
2023-02-27T00:59:50.288Z,0
2023-02-27T01:04:57.295Z,0
2023-02-27T01:10:04.298Z,0
2023-02-27T01:15:11.319Z,0
2023-02-27T01:20:18.320Z,0
2023-02-27T01:25:25.315Z,0
2023-02-27T01:30:32.329Z,0
2023-02-27T01:35:39.330Z,0
2023-02-27T01:40:47.174Z,0
2023-02-27T01:45:53.985Z,0
2023-02-27T01:51:00.455Z,0
2023-02-27T01:56:06.918Z,0
2023-02-27T02:01:13.387Z,0
2023-02-27T02:06:19.856Z,0
2023-02-27T02:11:26.336Z,0
2023-02-27T02:16:32.794Z,0
2023-02-27T02:21:38.255Z,0
2023-02-27T02:26:44.400Z,0
2023-02-27T02:31:50.555Z,0
2023-02-27T02:36:56.706Z,0
2023-02-27T02:42:02.853Z,0
2023-02-27T02:47:08.082Z,0
2023-02-27T02:52:14.228Z,0
2023-02-27T02:57:20.372Z,0
2023-02-27T03:02:26.535Z,0
2023-02-27T03:07:32.672Z,0
2023-02-27T03:12:38.831Z,0
2023-02-27T03:17:44.996Z,0
2023-02-27T03:22:51.129Z,0
2023-02-27T03:27:57.281Z,0
2023-02-27T03:33:03.435Z,0
2023-02-27T03:38:08.592Z,0
2023-02-27T03:43:14.660Z,0
2023-02-27T03:48:19.776Z,0
2023-02-27T03:53:25.880Z,0
2023-02-27T03:58:31.955Z,0
2023-02-27T04:03:38.050Z,0
2023-02-27T04:08:44.129Z,0
2023-02-27T04:13:50.221Z,0
2023-02-27T04:18:56.316Z,0
2023-02-27T04:24:02.417Z,0
2023-02-27T04:29:08.485Z,0
2023-02-27T04:34:14.582Z,0
2023-02-27T04:44:26.762Z,0
2023-02-27T04:49:32.857Z,0
2023-02-27T04:54:38.941Z,0
2023-02-27T04:59:45.037Z,0
2023-02-27T05:04:50.131Z,528
2023-02-27T05:09:56.213Z,524
2023-02-27T05:15:02.328Z,524
2023-02-27T05:20:08.401Z,528
2023-02-27T05:25:14.486Z,524
2023-02-27T05:30:19.591Z,524
2023-02-27T05:35:24.715Z,524
2023-02-27T05:40:30.799Z,524
2023-02-27T05:45:36.883Z,528
2023-02-27T05:50:42.973Z,528
2023-02-27T05:55:49.069Z,528
2023-02-27T06:00:55.161Z,528
2023-02-27T06:06:01.249Z,532
2023-02-27T06:11:07.329Z,532
2023-02-27T06:16:13.418Z,540
2023-02-27T06:21:19.506Z,540
2023-02-27T06:26:25.603Z,544
2023-02-27T06:31:31.691Z,544
2023-02-27T06:36:37.773Z,548
2023-02-27T06:41:43.860Z,552
2023-02-27T06:46:49.963Z,560
2023-02-27T06:51:55.066Z,564
2023-02-27T06:57:01.151Z,564
2023-02-27T07:02:07.261Z,568
2023-02-27T07:07:13.334Z,564
2023-02-27T07:12:19.423Z,572
2023-02-27T07:17:25.514Z,576
2023-02-27T07:22:31.609Z,576
2023-02-27T07:27:37.681Z,580
2023-02-27T07:32:43.824Z,580
2023-02-27T07:37:48.899Z,564
2023-02-27T07:42:54.984Z,548
2023-02-27T07:48:01.100Z,548
2023-02-27T07:53:06.264Z,548
2023-02-27T07:58:12.332Z,556
2023-02-27T08:08:23.482Z,612
2023-02-27T08:13:28.661Z,632
2023-02-27T08:18:33.717Z,636
2023-02-27T08:23:39.797Z,636
2023-02-27T08:28:45.936Z,644
2023-02-27T08:33:51.969Z,652
2023-02-27T08:38:58.100Z,660
2023-02-27T08:44:04.145Z,664
2023-02-27T08:49:10.247Z,668
2023-02-27T08:54:16.321Z,680
2023-02-27T08:59:22.439Z,684
2023-02-27T09:04:28.504Z,664
2023-02-27T09:09:34.609Z,680
2023-02-27T09:14:40.684Z,692
2023-02-27T09:19:46.780Z,720
2023-02-27T09:24:52.927Z,728
2023-02-27T09:29:58.969Z,716
2023-02-27T09:40:10.159Z,724
2023-02-27T09:45:16.236Z,740
2023-02-27T09:50:22.325Z,728
2023-02-27T09:55:28.413Z,728
2023-02-27T10:00:34.520Z,720
2023-02-27T10:05:39.633Z,736
2023-02-27T10:10:45.732Z,752
2023-02-27T10:15:51.813Z,752
2023-02-27T10:20:57.885Z,768
2023-02-27T10:26:03.037Z,768
2023-02-27T10:31:08.124Z,760
2023-02-27T10:36:14.306Z,740
2023-02-27T10:41:20.359Z,744
2023-02-27T10:46:26.390Z,764
2023-02-27T10:51:32.510Z,756
2023-02-27T10:56:38.672Z,756
2023-02-27T11:01:44.656Z,240
2023-02-27T11:06:50.754Z,200
2023-02-27T11:11:56.832Z,192
2023-02-27T11:17:02.968Z,216
2023-02-27T11:22:09.024Z,252
2023-02-27T11:27:15.112Z,224
2023-02-27T11:32:21.192Z,236
2023-02-27T11:37:27.291Z,176
2023-02-27T11:42:33.387Z,160
2023-02-27T11:47:39.473Z,164
2023-02-27T11:52:45.569Z,136
2023-02-27T11:57:51.649Z,120
2023-02-27T12:02:57.737Z,148
2023-02-27T12:13:09.941Z,296
2023-02-27T12:18:16.071Z,248
2023-02-27T12:23:22.097Z,244
2023-02-27T12:28:28.176Z,220
2023-02-27T12:33:34.276Z,208
2023-02-27T12:38:40.366Z,696
2023-02-27T12:43:46.452Z,664
2023-02-27T12:48:52.539Z,664
2023-02-27T12:53:57.661Z,692
2023-02-27T12:59:03.747Z,700
2023-02-27T13:04:09.843Z,696
2023-02-27T13:09:15.938Z,692
2023-02-27T13:14:21.054Z,676
2023-02-27T13:19:27.149Z,684
2023-02-27T13:24:33.280Z,700
2023-02-27T13:29:39.324Z,692
2023-02-27T13:34:45.472Z,692
2023-02-27T13:39:51.580Z,672
2023-02-27T13:44:57.642Z,676
2023-02-27T13:50:03.662Z,664
2023-02-27T13:55:09.760Z,720
2023-02-27T14:00:15.866Z,788
2023-02-27T14:05:21.940Z,764
2023-02-27T14:10:28.051Z,660
2023-02-27T14:15:34.194Z,684
2023-02-27T14:20:40.217Z,684
2023-02-27T14:25:46.317Z,680
2023-02-27T14:30:52.379Z,656
2023-02-27T14:35:58.504Z,612
2023-02-27T14:41:04.580Z,592
2023-02-27T14:46:09.680Z,584
2023-02-27T14:51:15.755Z,576
2023-02-27T14:56:21.858Z,572
2023-02-27T15:01:27.946Z,572
2023-02-27T15:06:34.043Z,568
2023-02-27T15:11:40.122Z,568
2023-02-27T15:16:46.234Z,572
2023-02-27T15:21:52.304Z,564
2023-02-27T15:26:58.404Z,560
2023-02-27T15:32:04.493Z,556
2023-02-27T15:37:10.587Z,552
2023-02-27T15:42:16.669Z,552
2023-02-27T15:47:22.746Z,552
2023-02-27T15:52:28.847Z,552
2023-02-27T15:57:34.941Z,548
2023-02-27T16:02:41.039Z,552
2023-02-27T16:07:47.129Z,548
2023-02-27T16:12:53.202Z,544
2023-02-27T16:17:59.294Z,540
2023-02-27T16:23:05.380Z,540
2023-02-27T16:28:11.468Z,532
2023-02-27T16:33:17.582Z,532
2023-02-27T16:38:23.651Z,532
2023-02-27T16:43:29.760Z,532
2023-02-27T16:48:35.820Z,528
2023-02-27T16:53:41.921Z,528
2023-02-27T16:58:48.006Z,532
2023-02-27T17:03:54.098Z,528
2023-02-27T17:09:00.216Z,528
2023-02-27T17:14:06.332Z,528
2023-02-27T17:19:12.377Z,528
2023-02-27T17:24:18.474Z,528
2023-02-27T17:29:24.561Z,528
2023-02-27T17:34:30.648Z,528
2023-02-27T17:39:36.723Z,528
2023-02-27T17:44:42.817Z,528
2023-02-27T17:49:48.910Z,0
2023-02-27T17:54:55.060Z,0
2023-02-27T18:00:01.237Z,0
2023-02-27T18:05:07.439Z,0
2023-02-27T18:10:13.507Z,0
2023-02-27T18:15:19.666Z,0
2023-02-27T18:20:25.812Z,0
2023-02-27T18:25:31.963Z,0
2023-02-27T18:30:38.138Z,0
2023-02-27T18:35:44.269Z,0
2023-02-27T18:40:50.442Z,0
2023-02-27T18:45:56.587Z,0
2023-02-27T18:51:02.728Z,0
2023-02-27T18:56:08.881Z,0
2023-02-27T19:01:15.175Z,0
2023-02-27T19:06:21.407Z,0
2023-02-27T19:11:27.674Z,0
2023-02-27T19:16:33.944Z,0
2023-02-27T19:21:40.199Z,0
2023-02-27T19:26:46.497Z,0
2023-02-27T19:31:51.718Z,0
2023-02-27T19:36:57.851Z,0
2023-02-27T19:42:03.890Z,0
2023-02-27T19:47:09.987Z,0
2023-02-27T19:52:16.128Z,0
2023-02-27T19:57:22.208Z,0
2023-02-27T20:02:28.316Z,0
2023-02-27T20:07:34.335Z,0
2023-02-27T20:12:40.436Z,0
2023-02-27T20:17:46.511Z,0
2023-02-27T20:22:52.609Z,0
2023-02-27T20:27:58.691Z,0
2023-02-27T20:33:04.789Z,0
2023-02-27T20:38:10.868Z,0
2023-02-27T20:43:16.958Z,0
2023-02-27T20:48:23.050Z,0
2023-02-27T20:53:29.147Z,0
2023-02-27T21:03:41.327Z,0
2023-02-27T21:08:47.463Z,0
2023-02-27T21:13:53.521Z,0
2023-02-27T21:18:59.636Z,0
2023-02-27T21:24:05.695Z,0
2023-02-27T21:29:11.917Z,0
2023-02-27T21:34:17.860Z,0
2023-02-27T21:39:24.010Z,0
2023-02-27T21:44:30.221Z,0
2023-02-27T21:49:36.359Z,0
2023-02-27T21:54:42.468Z,0
2023-02-27T21:59:48.641Z,0
2023-02-27T22:04:54.760Z,0
2023-02-27T22:10:00.916Z,0
2023-02-27T22:15:07.110Z,0
2023-02-27T22:20:13.216Z,0
2023-02-27T22:25:19.371Z,0
2023-02-27T22:30:25.577Z,0
2023-02-27T22:35:31.680Z,0
2023-02-27T22:40:37.833Z,0
2023-02-27T22:45:44.092Z,0
2023-02-27T22:50:50.364Z,0
2023-02-27T22:55:56.629Z,0
2023-02-27T23:01:02.880Z,0
2023-02-27T23:06:09.185Z,0
2023-02-27T23:11:15.404Z,0
2023-02-27T23:16:21.669Z,0
2023-02-27T23:21:27.948Z,0
2023-02-27T23:26:34.260Z,0
2023-02-27T23:31:40.493Z,0
2023-02-27T23:36:46.779Z,0
2023-02-27T23:41:53.007Z,0
2023-02-27T23:46:59.289Z,0
2023-02-27T23:52:05.734Z,0
2023-02-27T23:57:12.237Z,0
